Terminal Aerodrome Forecast
Issued by NWS

Home | Current Version | Previous Version | Text Only | Print | Product List | Glossary On
Versions: 1 2 3 4 5 6 7 8 9 10 11 12 13 14 15 16
000
FTUS45 KFGZ 201800 AAA
TAFGCN
TAF AMD
KGCN 201819Z 2018/2118 05010KT P6SM VCTS SCT060CB
      TEMPO 2019/2023 VRB15G25KT 3SM TSRA OVC030CB
     FM202300 VRB03KT P6SM -SHRA SCT040 BKN070
     FM210600 VRB05KT P6SM BKN060 PROB30 2106/2112 5SM -SHRA BKN040=

USA.gov is the U.S. government's official web portal to all federal, state and local government web resources and services.